createdAt,value
2022-09-24T00:00:53.202Z,35.93
2022-09-24T00:01:53.301Z,35.77
2022-09-24T00:02:53.268Z,35.77
2022-09-24T00:03:53.201Z,35.93
2022-09-24T00:04:53.371Z,39.48
2022-09-24T00:05:53.317Z,34.97
2022-09-24T00:06:53.122Z,46.25
2022-09-24T00:07:53.192Z,35.45
2022-09-24T00:08:53.110Z,34.97
2022-09-24T00:09:53.072Z,35.29
2022-09-24T00:10:53.091Z,35.45
2022-09-24T00:11:53.187Z,35.45
2022-09-24T00:12:53.135Z,35.61
2022-09-24T00:13:53.068Z,35.77
2022-09-24T00:14:53.026Z,35.77
2022-09-24T00:15:53.047Z,35.29
2022-09-24T00:16:53.123Z,35.61
2022-09-24T00:17:53.145Z,35.45
2022-09-24T00:18:52.942Z,35.77
2022-09-24T00:19:52.986Z,35.61
2022-09-24T00:20:52.922Z,35.45
2022-09-24T00:21:52.901Z,35.45
2022-09-24T00:22:53.367Z,35.29
2022-09-24T00:23:53.011Z,35.93
2022-09-24T00:24:52.866Z,35.77
2022-09-24T00:25:52.906Z,35.93
2022-09-24T00:26:52.835Z,35.45
2022-09-24T00:27:52.846Z,36.42
2022-09-24T00:28:52.805Z,36.42
2022-09-24T00:29:52.946Z,35.61
2022-09-24T00:30:52.795Z,36.90
2022-09-24T00:31:52.855Z,35.29
2022-09-24T00:32:52.741Z,35.61
2022-09-24T00:33:52.718Z,35.61
2022-09-24T00:34:52.740Z,35.29
2022-09-24T00:35:53.522Z,35.61
2022-09-24T00:36:52.704Z,35.77
2022-09-24T00:37:52.720Z,35.77
2022-09-24T00:38:52.659Z,35.61
2022-09-24T00:39:52.663Z,35.45
2022-09-24T00:40:52.743Z,35.45
2022-09-24T00:41:52.757Z,35.61
2022-09-24T00:42:52.610Z,35.93
2022-09-24T00:43:52.629Z,35.61
2022-09-24T00:44:52.572Z,35.45
2022-09-24T00:45:52.592Z,35.29
2022-09-24T00:46:52.755Z,35.61
2022-09-24T00:47:52.686Z,35.45
2022-09-24T00:48:52.512Z,35.93
2022-09-24T00:49:52.579Z,35.61
2022-09-24T00:50:53.228Z,35.77
2022-09-24T00:51:52.467Z,35.61
2022-09-24T00:52:52.510Z,35.93
2022-09-24T00:53:52.593Z,35.93
2022-09-24T00:54:52.576Z,35.93
2022-09-24T00:55:52.600Z,35.61
2022-09-24T00:56:52.504Z,36.09
2022-09-24T00:57:52.386Z,35.93
2022-09-24T00:58:52.450Z,35.45
2022-09-24T00:59:52.524Z,35.93
2022-09-24T01:00:53.953Z,35.93
2022-09-24T01:01:52.467Z,35.61
2022-09-24T01:02:52.322Z,35.93
2022-09-24T01:03:52.313Z,35.61
2022-09-24T01:04:56.304Z,35.61
2022-09-24T01:05:52.433Z,35.93
2022-09-24T01:06:52.268Z,36.09
2022-09-24T01:07:52.286Z,36.42
2022-09-24T01:08:52.399Z,35.93
2022-09-24T01:09:52.229Z,36.09
2022-09-24T01:10:52.210Z,35.61
2022-09-24T01:11:52.213Z,35.61
2022-09-24T01:12:52.173Z,35.61
2022-09-24T01:13:52.195Z,41.57
2022-09-24T01:14:52.324Z,36.09
2022-09-24T01:15:52.182Z,35.93
2022-09-24T01:16:52.140Z,36.90
2022-09-24T01:17:52.120Z,55.59
2022-09-24T01:18:53.592Z,37.38
2022-09-24T01:19:52.116Z,36.58
2022-09-24T01:20:52.299Z,35.93
2022-09-24T01:21:52.060Z,36.25
2022-09-24T01:22:52.044Z,35.93
2022-09-24T01:23:52.059Z,35.77
2022-09-24T01:24:52.086Z,36.09
2022-09-24T01:25:52.057Z,36.74
2022-09-24T01:26:52.069Z,35.93
2022-09-24T01:27:51.969Z,35.45
2022-09-24T01:28:52.304Z,36.25
2022-09-24T01:29:51.948Z,35.77
2022-09-24T01:30:52.120Z,35.77
2022-09-24T01:31:52.045Z,40.12
2022-09-24T01:32:51.985Z,36.09
2022-09-24T01:33:51.888Z,35.77
2022-09-24T01:34:51.890Z,37.38
2022-09-24T01:35:51.849Z,35.61
2022-09-24T01:36:51.856Z,35.77
2022-09-24T01:37:51.869Z,35.77
2022-09-24T01:38:52.328Z,35.61
2022-09-24T01:39:51.788Z,36.42
2022-09-24T01:40:51.974Z,35.61
2022-09-24T01:41:51.766Z,35.61
2022-09-24T01:42:51.807Z,35.77
2022-09-24T01:43:51.772Z,35.77
2022-09-24T01:44:51.894Z,35.77
2022-09-24T01:45:51.715Z,35.77
2022-09-24T01:46:51.744Z,35.77
2022-09-24T01:47:51.763Z,35.93
2022-09-24T01:48:51.716Z,35.61
2022-09-24T01:49:51.688Z,35.93
2022-09-24T01:50:51.801Z,35.61
2022-09-24T01:51:51.663Z,35.77
2022-09-24T01:52:51.677Z,35.93
2022-09-24T01:53:51.610Z,35.93
2022-09-24T01:54:53.129Z,36.90
2022-09-24T01:55:51.608Z,35.61
2022-09-24T01:56:51.642Z,36.09
2022-09-24T01:57:51.537Z,35.93
2022-09-24T01:58:51.567Z,35.77
2022-09-24T01:59:51.568Z,34.97
2022-09-24T02:00:51.532Z,35.61
2022-09-24T02:01:51.552Z,35.93
2022-09-24T02:02:51.623Z,35.93
2022-09-24T02:03:51.481Z,35.77
2022-09-24T02:04:51.477Z,35.93
2022-09-24T02:05:51.444Z,35.61
2022-09-24T02:06:51.709Z,35.77
2022-09-24T02:07:51.503Z,35.93
2022-09-24T02:08:51.597Z,35.93
2022-09-24T02:09:51.370Z,35.93
2022-09-24T02:10:51.382Z,35.77
2022-09-24T02:11:51.369Z,35.93
2022-09-24T02:12:51.333Z,35.93
2022-09-24T02:13:51.365Z,35.93
2022-09-24T02:14:51.418Z,35.93
2022-09-24T02:15:51.405Z,39.96
2022-09-24T02:16:51.412Z,36.09
2022-09-24T02:17:51.267Z,36.09
2022-09-24T02:18:51.277Z,36.25
2022-09-24T02:19:51.291Z,35.61
2022-09-24T02:20:51.466Z,35.77
2022-09-24T02:21:51.377Z,35.77
2022-09-24T02:22:51.223Z,35.93
2022-09-24T02:23:51.167Z,35.93
2022-09-24T02:24:51.217Z,35.93
2022-09-24T02:25:51.189Z,35.93
2022-09-24T02:26:51.700Z,35.93
2022-09-24T02:27:51.124Z,35.93
2022-09-24T02:28:51.223Z,35.77
2022-09-24T02:29:51.093Z,35.93
2022-09-24T02:30:51.077Z,35.77
2022-09-24T02:31:51.144Z,35.77
2022-09-24T02:32:51.404Z,36.42
2022-09-24T02:33:51.042Z,35.77
2022-09-24T02:34:51.216Z,36.09
2022-09-24T02:35:51.008Z,36.90
2022-09-24T02:36:51.137Z,35.93
2022-09-24T02:37:51.020Z,35.77
2022-09-24T02:38:51.170Z,35.93
2022-09-24T02:39:50.950Z,35.77
2022-09-24T02:40:51.016Z,35.77
2022-09-24T02:41:50.924Z,35.77
2022-09-24T02:42:51.252Z,35.93
2022-09-24T02:43:50.927Z,35.93
2022-09-24T02:44:51.023Z,35.77
2022-09-24T02:45:50.872Z,35.61
2022-09-24T02:46:50.971Z,35.61
2022-09-24T02:47:50.838Z,36.09
2022-09-24T02:48:50.873Z,35.45
2022-09-24T02:49:50.836Z,36.09
2022-09-24T02:50:50.963Z,35.61
2022-09-24T02:51:50.779Z,35.61
2022-09-24T02:52:50.970Z,35.93
2022-09-24T02:53:50.741Z,35.77
2022-09-24T02:54:50.829Z,35.77
2022-09-24T02:55:50.760Z,35.77
2022-09-24T02:56:50.965Z,35.93
2022-09-24T02:57:50.701Z,35.93
2022-09-24T02:58:50.722Z,35.93
2022-09-24T02:59:50.664Z,35.61
2022-09-24T03:00:50.933Z,35.13
2022-09-24T03:01:50.786Z,35.45
2022-09-24T03:02:51.024Z,35.77
2022-09-24T03:03:50.625Z,35.77
2022-09-24T03:04:50.709Z,35.29
2022-09-24T03:05:50.594Z,35.61
2022-09-24T03:06:51.643Z,36.09
2022-09-24T03:07:50.751Z,35.93
2022-09-24T03:08:50.722Z,35.45
2022-09-24T03:09:50.527Z,35.77
2022-09-24T03:10:50.573Z,35.61
2022-09-24T03:11:50.495Z,36.42
2022-09-24T03:12:51.995Z,35.45
2022-09-24T03:13:50.489Z,35.61
2022-09-24T03:14:50.678Z,35.45
2022-09-24T03:15:50.518Z,35.77
2022-09-24T03:16:50.438Z,35.45
2022-09-24T03:17:50.407Z,35.93
2022-09-24T03:18:50.466Z,35.61
2022-09-24T03:19:50.445Z,35.93
2022-09-24T03:20:50.529Z,35.93
2022-09-24T03:21:51.177Z,35.61
2022-09-24T03:22:51.494Z,35.45
2022-09-24T03:23:50.329Z,35.29
2022-09-24T03:24:50.375Z,35.61
2022-09-24T03:25:50.400Z,35.77
2022-09-24T03:26:50.429Z,35.61
2022-09-24T03:27:50.269Z,35.77
2022-09-24T03:28:50.260Z,36.09
2022-09-24T03:29:50.240Z,35.45
2022-09-24T03:30:50.238Z,36.58
2022-09-24T03:31:50.259Z,35.93
2022-09-24T03:32:50.474Z,36.25
2022-09-24T03:33:50.192Z,35.93
2022-09-24T03:34:50.220Z,35.45
2022-09-24T03:35:50.159Z,35.93
2022-09-24T03:36:50.178Z,35.93
2022-09-24T03:37:50.166Z,35.61
2022-09-24T03:38:50.282Z,36.25
2022-09-24T03:39:50.112Z,35.77
2022-09-24T03:40:50.154Z,35.61
2022-09-24T03:41:50.098Z,35.45
2022-09-24T03:42:50.125Z,35.93
2022-09-24T03:43:50.074Z,35.61
2022-09-24T03:44:50.217Z,35.45
2022-09-24T03:45:50.017Z,35.45
2022-09-24T03:46:50.435Z,35.93
2022-09-24T03:47:49.984Z,35.77
2022-09-24T03:48:50.046Z,35.45
2022-09-24T03:49:49.993Z,35.61
2022-09-24T03:50:50.303Z,35.93
2022-09-24T03:51:49.928Z,35.93
2022-09-24T03:52:50.111Z,34.64
2022-09-24T03:53:49.925Z,35.77
2022-09-24T03:54:49.918Z,36.42
2022-09-24T03:55:49.910Z,35.93
2022-09-24T03:56:50.122Z,35.77
2022-09-24T03:57:49.840Z,35.61
2022-09-24T03:58:49.836Z,35.77
2022-09-24T03:59:49.822Z,35.93
2022-09-24T04:00:49.839Z,35.93
2022-09-24T04:01:49.897Z,35.61
2022-09-24T04:02:49.890Z,35.93
2022-09-24T04:03:49.759Z,35.77
2022-09-24T04:04:49.969Z,35.93
2022-09-24T04:05:49.737Z,36.09
2022-09-24T04:06:49.860Z,35.93
2022-09-24T04:07:49.750Z,35.93
2022-09-24T04:08:49.989Z,35.61
2022-09-24T04:09:49.698Z,35.93
2022-09-24T04:10:49.805Z,35.93
2022-09-24T04:11:49.674Z,35.77
2022-09-24T04:12:49.707Z,35.93
2022-09-24T04:13:49.729Z,35.61
2022-09-24T04:14:49.835Z,35.77
2022-09-24T04:15:49.638Z,36.09
2022-09-24T04:16:49.673Z,35.77
2022-09-24T04:17:49.573Z,35.61
2022-09-24T04:18:49.544Z,35.77
2022-09-24T04:19:49.591Z,35.93
2022-09-24T04:20:49.735Z,35.29
2022-09-24T04:21:49.510Z,35.93
2022-09-24T04:22:49.507Z,35.93
2022-09-24T04:23:49.475Z,36.09
2022-09-24T04:24:49.643Z,35.61
2022-09-24T04:25:49.486Z,35.93
2022-09-24T04:26:49.783Z,36.42
2022-09-24T04:27:49.432Z,35.93
2022-09-24T04:28:49.543Z,35.61
2022-09-24T04:29:49.392Z,35.77
2022-09-24T04:30:49.538Z,35.61
2022-09-24T04:31:49.417Z,35.61
2022-09-24T04:32:49.534Z,35.61
2022-09-24T04:33:49.339Z,36.42
2022-09-24T04:34:49.541Z,37.54
2022-09-24T04:35:49.311Z,36.25
2022-09-24T04:36:50.190Z,35.93
2022-09-24T04:37:49.356Z,36.25
2022-09-24T04:38:49.465Z,35.61
2022-09-24T04:39:49.389Z,35.77
2022-09-24T04:40:49.396Z,35.93
2022-09-24T04:41:49.259Z,35.29
2022-09-24T04:42:50.013Z,35.77
2022-09-24T04:43:49.229Z,35.61
2022-09-24T04:44:52.795Z,35.45
2022-09-24T04:45:50.322Z,35.93
2022-09-24T04:46:49.594Z,35.61
2022-09-24T04:47:49.138Z,35.77
2022-09-24T04:48:49.260Z,35.61
2022-09-24T04:49:49.186Z,36.58
2022-09-24T04:50:49.899Z,36.09
2022-09-24T04:51:49.217Z,35.61
2022-09-24T04:52:49.285Z,35.77
2022-09-24T04:53:49.056Z,35.45
2022-09-24T04:54:49.464Z,35.93
2022-09-24T04:55:49.047Z,35.61
2022-09-24T04:56:49.213Z,35.93
2022-09-24T04:57:49.146Z,36.09
2022-09-24T04:58:49.186Z,35.77
2022-09-24T04:59:48.976Z,35.93
2022-09-24T05:00:49.195Z,35.61
2022-09-24T05:01:49.424Z,35.29
2022-09-24T05:02:49.231Z,35.93
2022-09-24T05:03:49.032Z,35.77
2022-09-24T05:04:49.138Z,35.93
2022-09-24T05:05:48.881Z,35.61
2022-09-24T05:06:51.816Z,35.61
2022-09-24T05:07:48.908Z,35.93
2022-09-24T05:08:49.324Z,35.61
2022-09-24T05:09:48.919Z,35.93
2022-09-24T05:10:49.048Z,35.61
2022-09-24T05:11:50.281Z,35.29
2022-09-24T05:12:48.839Z,35.93
2022-09-24T05:13:48.961Z,35.77
2022-09-24T05:14:49.105Z,35.61
2022-09-24T05:15:48.949Z,35.77
2022-09-24T05:16:49.187Z,35.45
2022-09-24T05:17:48.719Z,35.45
2022-09-24T05:18:49.009Z,35.77
2022-09-24T05:19:48.736Z,35.61
2022-09-24T05:20:48.958Z,35.93
2022-09-24T05:21:48.865Z,35.61
2022-09-24T05:22:48.823Z,35.45
2022-09-24T05:23:48.636Z,35.77
2022-09-24T05:24:48.717Z,35.93
2022-09-24T05:25:48.633Z,35.45
2022-09-24T05:26:49.376Z,35.93
2022-09-24T05:27:48.711Z,35.45
2022-09-24T05:28:49.002Z,35.45
2022-09-24T05:29:48.544Z,35.61
2022-09-24T05:30:49.387Z,35.45
2022-09-24T05:31:48.643Z,35.77
2022-09-24T05:32:49.223Z,35.77
2022-09-24T05:33:48.624Z,35.93
2022-09-24T05:34:48.760Z,35.61
2022-09-24T05:35:48.462Z,35.61
2022-09-24T05:36:49.365Z,35.61
2022-09-24T05:37:48.472Z,35.29
2022-09-24T05:38:48.682Z,36.42
2022-09-24T05:39:48.636Z,35.45
2022-09-24T05:40:48.585Z,35.77
2022-09-24T05:41:48.381Z,36.09
2022-09-24T05:42:48.836Z,35.45
2022-09-24T05:43:48.375Z,35.77
2022-09-24T05:44:52.136Z,35.77
2022-09-24T05:45:48.470Z,35.93
2022-09-24T05:46:48.550Z,35.93
2022-09-24T05:47:48.300Z,35.93
2022-09-24T05:48:48.364Z,35.77
2022-09-24T05:49:48.291Z,35.45
2022-09-24T05:50:49.135Z,35.29
2022-09-24T05:51:48.462Z,35.77
2022-09-24T05:52:48.540Z,35.77
2022-09-24T05:53:48.211Z,35.93
2022-09-24T05:54:48.361Z,35.93
2022-09-24T05:55:48.216Z,35.77
2022-09-24T05:56:48.447Z,35.77
2022-09-24T05:57:48.325Z,35.45
2022-09-24T05:58:48.408Z,35.93
2022-09-24T05:59:48.187Z,35.61
2022-09-24T06:00:48.211Z,35.29
2022-09-24T06:01:48.242Z,36.58
2022-09-24T06:02:48.303Z,35.93
2022-09-24T06:03:48.314Z,35.77
2022-09-24T06:04:49.208Z,35.93
2022-09-24T06:05:48.045Z,35.61
2022-09-24T06:06:48.361Z,35.77
2022-09-24T06:07:48.123Z,35.61
2022-09-24T06:08:48.217Z,35.61
2022-09-24T06:09:48.198Z,35.61
2022-09-24T06:10:48.383Z,35.61
2022-09-24T06:11:48.067Z,35.45
2022-09-24T06:12:49.033Z,35.93
2022-09-24T06:13:48.017Z,35.45
2022-09-24T06:14:48.167Z,35.61
2022-09-24T06:15:48.000Z,35.61
2022-09-24T06:16:49.147Z,35.61
2022-09-24T06:17:47.872Z,35.77
2022-09-24T06:18:48.702Z,35.61
2022-09-24T06:19:47.921Z,35.93
2022-09-24T06:20:48.953Z,35.61
2022-09-24T06:21:47.856Z,35.61
2022-09-24T06:22:48.634Z,35.61
2022-09-24T06:23:47.806Z,36.90
2022-09-24T06:24:47.995Z,36.42
2022-09-24T06:25:47.804Z,35.61
2022-09-24T06:26:47.958Z,36.74
2022-09-24T06:27:47.856Z,35.61
2022-09-24T06:28:48.068Z,35.77
2022-09-24T06:29:47.702Z,35.77
2022-09-24T06:30:47.771Z,36.42
2022-09-24T06:31:47.780Z,35.77
2022-09-24T06:32:48.124Z,55.43
2022-09-24T06:33:47.646Z,36.42
2022-09-24T06:34:48.962Z,35.93
2022-09-24T06:35:47.656Z,38.83
2022-09-24T06:36:48.622Z,35.93
2022-09-24T06:37:47.671Z,35.77
2022-09-24T06:38:47.916Z,36.42
2022-09-24T06:39:47.557Z,36.09
2022-09-24T06:40:48.394Z,35.45
2022-09-24T06:41:47.524Z,35.77
2022-09-24T06:42:48.061Z,35.45
2022-09-24T06:43:47.534Z,35.45
2022-09-24T06:44:47.923Z,35.45
2022-09-24T06:45:47.472Z,35.77
2022-09-24T06:46:48.896Z,35.61
2022-09-24T06:47:47.465Z,37.87
2022-09-24T06:48:48.080Z,35.93
2022-09-24T06:49:47.477Z,39.32
2022-09-24T06:50:48.073Z,36.58
2022-09-24T06:51:47.390Z,35.77
2022-09-24T06:52:49.502Z,36.90
2022-09-24T06:53:47.361Z,35.93
2022-09-24T06:54:48.675Z,35.61
2022-09-24T06:55:47.360Z,36.09
2022-09-24T06:56:48.028Z,35.45
2022-09-24T06:57:47.352Z,35.93
2022-09-24T06:58:47.974Z,35.77
2022-09-24T06:59:47.272Z,35.45
2022-09-24T07:00:53.561Z,35.61
2022-09-24T07:01:47.312Z,35.45
2022-09-24T07:02:49.222Z,35.45
2022-09-24T07:03:47.230Z,35.45
2022-09-24T07:04:47.767Z,35.93
2022-09-24T07:05:47.189Z,35.77
2022-09-24T07:06:47.362Z,35.93
2022-09-24T07:07:47.227Z,35.93
2022-09-24T07:08:47.251Z,37.38
2022-09-24T07:09:47.127Z,35.29
2022-09-24T07:10:47.617Z,35.93
2022-09-24T07:11:47.092Z,35.93
2022-09-24T07:12:48.056Z,35.29
2022-09-24T07:13:47.135Z,35.77
2022-09-24T07:14:48.465Z,35.61
2022-09-24T07:15:47.107Z,35.29
2022-09-24T07:16:48.607Z,35.45
2022-09-24T07:17:47.185Z,36.74
2022-09-24T07:18:48.964Z,36.09
2022-09-24T07:19:47.047Z,36.74
2022-09-24T07:20:47.293Z,44.31
2022-09-24T07:21:46.975Z,38.83
2022-09-24T07:22:47.593Z,37.71
2022-09-24T07:23:46.933Z,38.83
2022-09-24T07:24:47.361Z,42.06
2022-09-24T07:25:46.946Z,35.93
2022-09-24T07:26:47.075Z,35.61
2022-09-24T07:27:46.890Z,39.32
2022-09-24T07:28:47.683Z,37.71
2022-09-24T07:29:46.849Z,43.99
2022-09-24T07:30:49.335Z,37.06
2022-09-24T07:31:46.915Z,35.61
2022-09-24T07:32:47.896Z,36.42
2022-09-24T07:33:46.794Z,38.19
2022-09-24T07:34:47.052Z,47.70
2022-09-24T07:35:46.773Z,35.93
2022-09-24T07:36:47.666Z,38.67
2022-09-24T07:37:46.805Z,41.41
2022-09-24T07:38:48.024Z,38.99
2022-09-24T07:39:46.701Z,47.53
2022-09-24T07:40:47.084Z,36.74
2022-09-24T07:41:46.688Z,36.09
2022-09-24T07:42:47.441Z,43.18
2022-09-24T07:43:46.746Z,42.38
2022-09-24T07:44:47.429Z,43.34
2022-09-24T07:45:46.637Z,35.61
2022-09-24T07:46:47.651Z,36.90
2022-09-24T07:47:46.596Z,36.09
2022-09-24T07:48:47.657Z,50.43
2022-09-24T07:49:46.649Z,37.87
2022-09-24T07:50:46.874Z,38.99
2022-09-24T07:51:46.561Z,41.57
2022-09-24T07:52:47.569Z,51.24
2022-09-24T07:53:46.513Z,53.66
2022-09-24T07:54:47.704Z,49.63
2022-09-24T07:55:46.521Z,39.96
2022-09-24T07:56:47.406Z,36.25
2022-09-24T07:57:46.466Z,37.38
2022-09-24T07:58:47.858Z,36.25
2022-09-24T07:59:46.424Z,37.06
2022-09-24T08:00:47.661Z,37.06
2022-09-24T08:01:46.487Z,35.61
2022-09-24T08:02:46.560Z,35.93
2022-09-24T08:03:46.453Z,49.31
2022-09-24T08:04:47.659Z,36.58
2022-09-24T08:05:46.367Z,36.58
2022-09-24T08:06:47.661Z,40.44
2022-09-24T08:07:46.341Z,44.15
2022-09-24T08:08:46.621Z,39.80
2022-09-24T08:09:46.288Z,40.93
2022-09-24T08:10:46.661Z,36.74
2022-09-24T08:11:46.269Z,44.47
2022-09-24T08:12:46.409Z,35.61
2022-09-24T08:13:46.303Z,37.87
2022-09-24T08:14:46.390Z,58.17
2022-09-24T08:15:46.240Z,36.42
2022-09-24T08:16:47.381Z,38.99
2022-09-24T08:17:49.966Z,37.06
2022-09-24T08:18:46.394Z,36.42
2022-09-24T08:19:46.180Z,36.58
2022-09-24T08:20:47.907Z,38.19
2022-09-24T08:21:46.120Z,37.06
2022-09-24T08:22:46.749Z,36.25
2022-09-24T08:23:46.081Z,37.06
2022-09-24T08:24:46.345Z,37.22
2022-09-24T08:25:46.123Z,36.42
2022-09-24T08:26:46.264Z,37.87
2022-09-24T08:27:46.028Z,37.87
2022-09-24T08:28:48.719Z,36.42
2022-09-24T08:29:45.996Z,36.09
2022-09-24T08:30:48.036Z,36.42
2022-09-24T08:31:46.053Z,37.06
2022-09-24T08:32:46.426Z,36.42
2022-09-24T08:33:45.948Z,37.06
2022-09-24T08:34:47.160Z,36.58
2022-09-24T08:35:45.927Z,36.58
2022-09-24T08:36:46.032Z,38.03
2022-09-24T08:37:45.931Z,36.42
2022-09-24T08:38:46.155Z,36.58
2022-09-24T08:39:45.860Z,36.25
2022-09-24T08:40:46.152Z,36.90
2022-09-24T08:41:45.854Z,36.25
2022-09-24T08:42:46.754Z,36.42
2022-09-24T08:43:45.842Z,36.90
2022-09-24T08:44:46.999Z,36.58
2022-09-24T08:45:45.773Z,36.58
2022-09-24T08:46:47.918Z,36.42
2022-09-24T08:47:45.750Z,36.90
2022-09-24T08:48:45.976Z,36.42
2022-09-24T08:49:45.757Z,35.93
2022-09-24T08:50:46.655Z,37.22
2022-09-24T08:51:45.686Z,36.42
2022-09-24T08:52:47.029Z,36.90
2022-09-24T08:53:45.684Z,36.90
2022-09-24T08:54:46.528Z,36.90
2022-09-24T08:55:45.679Z,36.74
2022-09-24T08:56:46.485Z,36.58
2022-09-24T08:57:45.621Z,36.90
2022-09-24T08:58:46.741Z,36.42
2022-09-24T08:59:45.599Z,36.58
2022-09-24T09:00:46.866Z,36.74
2022-09-24T09:01:45.673Z,36.74
2022-09-24T09:02:46.021Z,36.58
2022-09-24T09:03:45.546Z,36.74
2022-09-24T09:04:46.456Z,36.90
2022-09-24T09:05:49.262Z,36.42
2022-09-24T09:06:46.408Z,36.58
2022-09-24T09:07:45.619Z,36.58
2022-09-24T09:09:05.627Z,36.09
2022-09-24T09:09:46.445Z,36.74
2022-09-24T09:10:46.070Z,36.58
2022-09-24T09:11:45.444Z,36.25
2022-09-24T09:12:45.887Z,36.58
2022-09-24T09:13:45.533Z,36.74
2022-09-24T09:14:46.334Z,36.74
2022-09-24T09:15:45.473Z,36.58
2022-09-24T09:16:46.229Z,36.42
2022-09-24T09:17:45.325Z,36.90
2022-09-24T09:18:48.221Z,36.58
2022-09-24T09:19:45.336Z,36.58
2022-09-24T09:20:47.243Z,36.58
2022-09-24T09:21:45.264Z,36.74
2022-09-24T09:22:47.405Z,36.90
2022-09-24T09:23:45.244Z,36.42
2022-09-24T09:24:46.126Z,37.06
2022-09-24T09:25:45.248Z,36.58
2022-09-24T09:26:45.793Z,36.58
2022-09-24T09:27:45.188Z,37.54
2022-09-24T09:28:46.834Z,38.83
2022-09-24T09:29:45.166Z,36.74
2022-09-24T09:30:45.503Z,36.90
2022-09-24T09:31:45.391Z,38.03
2022-09-24T09:32:45.653Z,36.90
2022-09-24T09:33:45.113Z,38.99
2022-09-24T09:34:45.429Z,36.74
2022-09-24T09:35:45.072Z,37.22
2022-09-24T09:36:45.365Z,36.74
2022-09-24T09:37:45.084Z,36.90
2022-09-24T09:38:46.114Z,37.06
2022-09-24T09:39:45.012Z,37.87
2022-09-24T09:40:46.107Z,44.15
2022-09-24T09:41:44.979Z,36.74
2022-09-24T09:42:47.257Z,36.58
2022-09-24T09:43:44.999Z,36.25
2022-09-24T09:44:45.763Z,36.74
2022-09-24T09:45:44.931Z,46.25
2022-09-24T09:46:47.511Z,37.38
2022-09-24T09:47:44.913Z,49.47
2022-09-24T09:48:46.391Z,42.70
2022-09-24T09:49:44.915Z,67.51
2022-09-24T09:50:46.589Z,56.88
2022-09-24T09:51:44.845Z,52.21
2022-09-24T09:52:48.688Z,43.67
2022-09-24T09:53:44.829Z,37.06
2022-09-24T09:54:46.034Z,39.32
2022-09-24T09:55:44.926Z,36.74
2022-09-24T09:56:45.387Z,47.53
2022-09-24T09:57:45.734Z,43.67
2022-09-24T09:58:45.953Z,36.74
2022-09-24T09:59:44.735Z,36.42
2022-09-24T10:00:51.771Z,38.99
2022-09-24T10:01:44.813Z,39.80
2022-09-24T10:02:45.670Z,40.12
2022-09-24T10:03:44.772Z,42.54
2022-09-24T10:04:45.220Z,37.71
2022-09-24T10:05:44.662Z,43.83
2022-09-24T10:06:46.442Z,43.18
2022-09-24T10:07:44.681Z,39.32
2022-09-24T10:08:46.222Z,38.67
2022-09-24T10:09:44.580Z,40.12
2022-09-24T10:10:45.129Z,56.40
2022-09-24T10:11:44.578Z,59.78
2022-09-24T10:12:48.777Z,50.43
2022-09-24T10:13:44.562Z,47.70
2022-09-24T10:14:46.037Z,45.28
2022-09-24T10:15:45.644Z,41.57
2022-09-24T10:16:47.511Z,50.11
2022-09-24T10:17:44.517Z,43.67
2022-09-24T10:18:47.101Z,41.89
2022-09-24T10:19:44.478Z,37.54
2022-09-24T10:20:45.578Z,45.28
2022-09-24T10:21:44.450Z,40.12
2022-09-24T10:22:44.649Z,43.51
2022-09-24T10:23:44.398Z,38.67
2022-09-24T10:24:44.640Z,37.38
2022-09-24T10:25:44.417Z,42.86
2022-09-24T10:26:45.522Z,41.41
2022-09-24T10:27:44.338Z,49.63
2022-09-24T10:28:44.703Z,39.96
2022-09-24T10:29:44.309Z,40.12
2022-09-24T10:30:44.611Z,46.08
2022-09-24T10:31:44.391Z,37.71
2022-09-24T10:32:44.553Z,43.51
2022-09-24T10:33:44.261Z,43.18
2022-09-24T10:34:44.510Z,55.27
2022-09-24T10:35:44.226Z,37.38
2022-09-24T10:36:44.570Z,40.93
2022-09-24T10:37:44.252Z,39.64
2022-09-24T10:38:44.455Z,43.51
2022-09-24T10:39:44.167Z,59.46
2022-09-24T10:40:45.436Z,46.73
2022-09-24T10:41:44.151Z,53.01
2022-09-24T10:42:44.317Z,51.40
2022-09-24T10:43:44.167Z,39.16
2022-09-24T10:44:47.022Z,49.31
2022-09-24T10:45:45.258Z,56.07
2022-09-24T10:46:44.387Z,44.63
2022-09-24T10:47:44.068Z,38.99
2022-09-24T10:48:44.412Z,40.44
2022-09-24T10:49:44.066Z,45.28
2022-09-24T10:50:44.175Z,46.89
2022-09-24T10:51:44.114Z,44.79
2022-09-24T10:52:44.377Z,45.12
2022-09-24T10:53:43.981Z,45.60
2022-09-24T10:54:44.095Z,44.15
2022-09-24T10:55:44.012Z,47.21
2022-09-24T10:56:46.566Z,44.31
2022-09-24T10:57:44.231Z,44.63
2022-09-24T10:58:44.164Z,45.60
2022-09-24T10:59:43.906Z,47.21
2022-09-24T11:00:51.892Z,47.37
2022-09-24T11:01:43.946Z,43.67
2022-09-24T11:02:44.405Z,49.63
2022-09-24T11:03:43.931Z,51.88
2022-09-24T11:04:43.915Z,45.60
2022-09-24T11:05:43.800Z,67.19
2022-09-24T11:06:44.792Z,44.96
2022-09-24T11:07:43.815Z,39.96
2022-09-24T11:08:44.987Z,39.48
2022-09-24T11:09:43.906Z,52.69
2022-09-24T11:10:44.266Z,37.06
2022-09-24T11:11:44.016Z,37.22
2022-09-24T11:12:45.227Z,41.57
2022-09-24T11:13:45.923Z,60.26
2022-09-24T11:14:45.057Z,63.49
2022-09-24T11:15:43.699Z,39.96
2022-09-24T11:16:44.766Z,53.50
2022-09-24T11:17:43.785Z,48.02
2022-09-24T11:18:44.580Z,41.41
2022-09-24T11:19:43.634Z,37.06
2022-09-24T11:20:44.476Z,40.93
2022-09-24T11:21:43.575Z,38.51
2022-09-24T11:22:44.454Z,37.87
2022-09-24T11:23:43.823Z,43.34
2022-09-24T11:24:43.839Z,36.90
2022-09-24T11:25:43.546Z,37.54
2022-09-24T11:26:44.055Z,37.38
2022-09-24T11:27:43.503Z,43.02
2022-09-24T11:28:43.608Z,39.16
2022-09-24T11:29:43.583Z,43.67
2022-09-24T11:30:44.402Z,52.69
2022-09-24T11:31:43.497Z,49.15
2022-09-24T11:32:44.162Z,37.71
2022-09-24T11:33:43.438Z,36.74
2022-09-24T11:34:43.669Z,38.83
2022-09-24T11:35:43.467Z,46.08
2022-09-24T11:36:43.587Z,37.87
2022-09-24T11:37:43.560Z,44.15
2022-09-24T11:38:48.055Z,36.74
2022-09-24T11:39:43.323Z,36.58
2022-09-24T11:40:44.864Z,39.96
2022-09-24T11:41:43.487Z,43.18
2022-09-24T11:42:43.664Z,69.61
2022-09-24T11:43:44.776Z,38.67
2022-09-24T11:44:43.498Z,44.63
2022-09-24T11:45:43.246Z,37.38
2022-09-24T11:46:43.390Z,37.38
2022-09-24T11:47:43.308Z,36.74
2022-09-24T11:48:44.173Z,37.06
2022-09-24T11:49:43.212Z,36.42
2022-09-24T11:50:47.396Z,49.95
2022-09-24T11:51:43.146Z,37.38
2022-09-24T11:52:44.633Z,38.51
2022-09-24T11:53:43.313Z,44.47
2022-09-24T11:54:43.171Z,50.43
2022-09-24T11:55:43.138Z,47.70
2022-09-24T11:56:43.867Z,52.37
2022-09-24T11:57:43.076Z,41.89
2022-09-24T11:58:43.533Z,37.54
2022-09-24T11:59:43.201Z,46.08
2022-09-24T12:00:43.558Z,37.38
2022-09-24T12:01:43.090Z,40.12
2022-09-24T12:02:43.224Z,43.18
2022-09-24T12:03:43.010Z,39.80
2022-09-24T12:04:43.659Z,38.51
2022-09-24T12:05:43.113Z,37.87
2022-09-24T12:06:43.324Z,36.90
2022-09-24T12:07:42.974Z,45.12
2022-09-24T12:08:43.684Z,43.67
2022-09-24T12:09:42.905Z,53.01
2022-09-24T12:10:44.100Z,37.38
2022-09-24T12:11:43.098Z,37.38
2022-09-24T12:12:43.487Z,39.80
2022-09-24T12:13:42.914Z,39.16
2022-09-24T12:14:43.452Z,38.35
2022-09-24T12:15:42.844Z,70.09
2022-09-24T12:16:43.657Z,51.72
2022-09-24T12:17:42.892Z,54.95
2022-09-24T12:18:43.176Z,67.84
2022-09-24T12:19:42.802Z,55.11
2022-09-24T12:20:43.235Z,57.85
2022-09-24T12:21:42.766Z,56.56
2022-09-24T12:22:43.746Z,51.56
2022-09-24T12:23:43.171Z,51.88
2022-09-24T12:24:43.671Z,50.11
2022-09-24T12:25:42.769Z,52.21
2022-09-24T12:26:43.875Z,50.92
2022-09-24T12:27:42.649Z,50.11
2022-09-24T12:28:44.901Z,51.08
2022-09-24T12:29:42.814Z,49.79
2022-09-24T12:30:43.642Z,50.27
2022-09-24T12:31:42.783Z,54.79
2022-09-24T12:32:42.788Z,49.95
2022-09-24T12:33:42.574Z,50.92
2022-09-24T12:34:43.530Z,50.43
2022-09-24T12:35:42.822Z,52.21
2022-09-24T12:36:44.247Z,56.88
2022-09-24T12:37:42.557Z,50.92
2022-09-24T12:38:43.089Z,51.88
2022-09-24T12:39:42.479Z,49.95
2022-09-24T12:40:42.791Z,52.05
2022-09-24T12:41:42.544Z,49.79
2022-09-24T12:42:43.275Z,51.56
2022-09-24T12:43:42.463Z,53.01
2022-09-24T12:44:42.871Z,50.76
2022-09-24T12:45:42.388Z,55.91
2022-09-24T12:46:43.622Z,50.76
2022-09-24T12:47:42.484Z,53.66
2022-09-24T12:48:43.715Z,51.88
2022-09-24T12:49:42.377Z,52.37
2022-09-24T12:50:42.891Z,54.30
2022-09-24T12:51:42.307Z,52.21
2022-09-24T12:52:43.125Z,51.24